sensor_id;sensor_type;location;lat;lon;timestamp;pressure;altitude;pressure_sealevel;temperature;humidity
48792;BME280;34587;48.816;9.420;2023-12-04T00:00:59;99051.84;;;-5.54;100.00
48792;BME280;34587;48.816;9.420;2023-12-04T00:03:24;99044.44;;;-5.67;100.00
48792;BME280;34587;48.816;9.420;2023-12-04T00:05:49;99050.78;;;-5.75;100.00
48792;BME280;34587;48.816;9.420;2023-12-04T00:08:14;99047.13;;;-5.80;100.00
48792;BME280;34587;48.816;9.420;2023-12-04T00:10:40;99039.19;;;-5.88;100.00
48792;BME280;34587;48.816;9.420;2023-12-04T00:13:05;99028.38;;;-5.85;100.00
48792;BME280;34587;48.816;9.420;2023-12-04T00:15:30;99025.31;;;-5.80;100.00
48792;BME280;34587;48.816;9.420;2023-12-04T00:17:56;99025.78;;;-5.87;100.00
48792;BME280;34587;48.816;9.420;2023-12-04T00:20:21;99019.81;;;-5.89;100.00
48792;BME280;34587;48.816;9.420;2023-12-04T00:22:46;99025.72;;;-5.88;100.00
48792;BME280;34587;48.816;9.420;2023-12-04T00:25:12;99020.69;;;-5.88;100.00
48792;BME280;34587;48.816;9.420;2023-12-04T00:27:37;99019.59;;;-5.93;100.00
48792;BME280;34587;48.816;9.420;2023-12-04T00:30:03;99019.72;;;-5.90;100.00
48792;BME280;34587;48.816;9.420;2023-12-04T00:32:29;99010.09;;;-5.81;100.00
48792;BME280;34587;48.816;9.420;2023-12-04T00:34:54;99010.53;;;-5.72;100.00
48792;BME280;34587;48.816;9.420;2023-12-04T00:37:20;99011.81;;;-5.80;100.00
48792;BME280;34587;48.816;9.420;2023-12-04T00:39:45;99010.25;;;-5.78;100.00
48792;BME280;34587;48.816;9.420;2023-12-04T00:42:10;98997.88;;;-5.74;100.00
48792;BME280;34587;48.816;9.420;2023-12-04T00:44:35;98999.34;;;-5.77;100.00
48792;BME280;34587;48.816;9.420;2023-12-04T00:47:01;98990.22;;;-5.75;100.00
48792;BME280;34587;48.816;9.420;2023-12-04T00:49:26;98989.78;;;-5.84;100.00
48792;BME280;34587;48.816;9.420;2023-12-04T00:51:51;98989.34;;;-5.76;100.00
48792;BME280;34587;48.816;9.420;2023-12-04T00:54:17;98979.97;;;-5.78;100.00
48792;BME280;34587;48.816;9.420;2023-12-04T00:56:42;98989.19;;;-5.79;100.00
48792;BME280;34587;48.816;9.420;2023-12-04T00:59:10;98988.78;;;-5.70;100.00
48792;BME280;34587;48.816;9.420;2023-12-04T05:15:10;98741.69;;;-5.28;100.00
48792;BME280;34587;48.816;9.420;2023-12-04T05:17:35;98735.56;;;-5.14;100.00
48792;BME280;34587;48.816;9.420;2023-12-04T05:20:00;98737.28;;;-5.13;100.00
48792;BME280;34587;48.816;9.420;2023-12-04T05:22:26;98725.63;;;-4.90;100.00
48792;BME280;34587;48.816;9.420;2023-12-04T05:24:51;98720.59;;;-4.90;100.00
48792;BME280;34587;48.816;9.420;2023-12-04T05:27:16;98725.69;;;-4.88;100.00
48792;BME280;34587;48.816;9.420;2023-12-04T05:29:41;98722.44;;;-4.86;100.00
48792;BME280;34587;48.816;9.420;2023-12-04T05:32:07;98726.50;;;-4.89;100.00
48792;BME280;34587;48.816;9.420;2023-12-04T05:34:32;98717.88;;;-4.95;100.00
48792;BME280;34587;48.816;9.420;2023-12-04T05:36:57;98718.84;;;-5.12;100.00
48792;BME280;34587;48.816;9.420;2023-12-04T05:39:22;98715.25;;;-5.17;100.00
48792;BME280;34587;48.816;9.420;2023-12-04T05:41:48;98705.16;;;-5.17;100.00
48792;BME280;34587;48.816;9.420;2023-12-04T05:44:13;98701.81;;;-5.16;100.00
48792;BME280;34587;48.816;9.420;2023-12-04T05:46:39;98695.16;;;-5.14;100.00
48792;BME280;34587;48.816;9.420;2023-12-04T05:49:04;98690.34;;;-5.08;100.00
48792;BME280;34587;48.816;9.420;2023-12-04T05:51:29;98684.38;;;-5.10;100.00
48792;BME280;34587;48.816;9.420;2023-12-04T05:53:55;98681.88;;;-5.10;100.00
48792;BME280;34587;48.816;9.420;2023-12-04T05:56:21;98680.00;;;-5.14;100.00
48792;BME280;34587;48.816;9.420;2023-12-04T05:58:46;98686.91;;;-5.10;100.00
48792;BME280;34587;48.816;9.420;2023-12-04T06:01:11;98692.09;;;-5.07;100.00
48792;BME280;34587;48.816;9.420;2023-12-04T06:03:37;98682.00;;;-5.07;100.00
48792;BME280;34587;48.816;9.420;2023-12-04T06:06:02;98689.03;;;-5.00;100.00
48792;BME280;34587;48.816;9.420;2023-12-04T06:08:27;98677.06;;;-5.04;100.00
48792;BME280;34587;48.816;9.420;2023-12-04T06:10:53;98679.88;;;-4.98;100.00
48792;BME280;34587;48.816;9.420;2023-12-04T06:13:18;98678.50;;;-4.89;100.00
48792;BME280;34587;48.816;9.420;2023-12-04T06:15:44;98678.06;;;-5.00;100.00
48792;BME280;34587;48.816;9.420;2023-12-04T06:18:09;98681.88;;;-4.89;100.00
48792;BME280;34587;48.816;9.420;2023-12-04T06:20:34;98681.41;;;-4.80;100.00
48792;BME280;34587;48.816;9.420;2023-12-04T06:23:00;98673.91;;;-4.98;100.00
48792;BME280;34587;48.816;9.420;2023-12-04T06:25:25;98673.44;;;-4.89;100.00
48792;BME280;34587;48.816;9.420;2023-12-04T06:27:51;98678.25;;;-4.75;100.00
48792;BME280;34587;48.816;9.420;2023-12-04T06:30:17;98683.16;;;-4.99;100.00
48792;BME280;34587;48.816;9.420;2023-12-04T06:32:43;98674.50;;;-4.84;100.00
48792;BME280;34587;48.816;9.420;2023-12-04T06:35:09;98688.59;;;-4.89;100.00
48792;BME280;34587;48.816;9.420;2023-12-04T06:37:34;98681.16;;;-4.86;100.00
48792;BME280;34587;48.816;9.420;2023-12-04T06:40:01;98675.38;;;-4.63;100.00
48792;BME280;34587;48.816;9.420;2023-12-04T06:42:28;98680.25;;;-4.68;100.00
48792;BME280;34587;48.816;9.420;2023-12-04T06:44:53;98674.63;;;-4.60;100.00
48792;BME280;34587;48.816;9.420;2023-12-04T06:47:22;98672.28;;;-4.56;100.00
48792;BME280;34587;48.816;9.420;2023-12-04T06:49:48;98673.22;;;-4.54;100.00
48792;BME280;34587;48.816;9.420;2023-12-04T06:52:13;98668.84;;;-4.58;100.00
48792;BME280;34587;48.816;9.420;2023-12-04T06:54:38;98669.69;;;-4.57;100.00
48792;BME280;34587;48.816;9.420;2023-12-04T06:57:04;98663.28;;;-4.70;100.00
48792;BME280;34587;48.816;9.420;2023-12-04T06:59:29;98664.91;;;-4.72;100.00
48792;BME280;34587;48.816;9.420;2023-12-04T07:01:55;98660.22;;;-4.63;100.00
48792;BME280;34587;48.816;9.420;2023-12-04T07:04:21;98666.97;;;-4.62;100.00
48792;BME280;34587;48.816;9.420;2023-12-04T07:06:47;98653.66;;;-4.58;100.00
48792;BME280;34587;48.816;9.420;2023-12-04T07:09:13;98648.84;;;-4.52;100.00
48792;BME280;34587;48.816;9.420;2023-12-04T07:11:39;98645.88;;;-4.42;100.00
48792;BME280;34587;48.816;9.420;2023-12-04T07:14:04;98642.53;;;-4.41;100.00
48792;BME280;34587;48.816;9.420;2023-12-04T07:16:29;98648.16;;;-4.48;100.00
48792;BME280;34587;48.816;9.420;2023-12-04T07:18:55;98632.19;;;-4.47;100.00
48792;BME280;34587;48.816;9.420;2023-12-04T07:21:20;98624.44;;;-4.51;100.00
48792;BME280;34587;48.816;9.420;2023-12-04T07:23:46;98627.00;;;-4.50;100.00
48792;BME280;34587;48.816;9.420;2023-12-04T07:26:11;98617.03;;;-4.47;100.00
48792;BME280;34587;48.816;9.420;2023-12-04T07:28:37;98614.44;;;-4.48;100.00
48792;BME280;34587;48.816;9.420;2023-12-04T07:31:02;98618.34;;;-4.56;100.00
48792;BME280;34587;48.816;9.420;2023-12-04T07:33:28;98614.94;;;-4.57;100.00
48792;BME280;34587;48.816;9.420;2023-12-04T07:35:54;98620.59;;;-4.42;100.00
48792;BME280;34587;48.816;9.420;2023-12-04T07:38:19;98612.19;;;-4.41;100.00
48792;BME280;34587;48.816;9.420;2023-12-04T07:40:45;98609.09;;;-4.33;100.00
48792;BME280;34587;48.816;9.420;2023-12-04T07:43:10;98620.25;;;-4.28;100.00
48792;BME280;34587;48.816;9.420;2023-12-04T07:45:35;98620.69;;;-4.16;100.00
48792;BME280;34587;48.816;9.420;2023-12-04T07:48:03;98614.84;;;-4.15;100.00
48792;BME280;34587;48.816;9.420;2023-12-04T07:50:28;98622.53;;;-4.12;100.00
48792;BME280;34587;48.816;9.420;2023-12-04T07:52:54;98611.03;;;-4.04;100.00
48792;BME280;34587;48.816;9.420;2023-12-04T07:55:19;98609.88;;;-4.12;100.00
48792;BME280;34587;48.816;9.420;2023-12-04T07:57:44;98595.53;;;-4.13;100.00
48792;BME280;34587;48.816;9.420;2023-12-04T08:00:10;98605.78;;;-4.10;100.00
48792;BME280;34587;48.816;9.420;2023-12-04T08:02:35;98615.19;;;-4.06;100.00
48792;BME280;34587;48.816;9.420;2023-12-04T08:05:01;98598.53;;;-4.01;100.00
48792;BME280;34587;48.816;9.420;2023-12-04T08:07:26;98591.53;;;-3.84;100.00
48792;BME280;34587;48.816;9.420;2023-12-04T08:09:51;98599.50;;;-3.73;100.00
48792;BME280;34587;48.816;9.420;2023-12-04T08:12:18;98589.47;;;-3.70;100.00
48792;BME280;34587;48.816;9.420;2023-12-04T08:14:43;98598.31;;;-3.59;100.00
48792;BME280;34587;48.816;9.420;2023-12-04T08:17:09;98591.63;;;-3.57;100.00
48792;BME280;34587;48.816;9.420;2023-12-04T08:19:34;98583.28;;;-3.54;100.00
48792;BME280;34587;48.816;9.420;2023-12-04T08:21:59;98587.59;;;-3.52;100.00
48792;BME280;34587;48.816;9.420;2023-12-04T08:24:24;98583.78;;;-3.39;100.00
48792;BME280;34587;48.816;9.420;2023-12-04T08:26:50;98581.69;;;-3.27;100.00
48792;BME280;34587;48.816;9.420;2023-12-04T08:29:16;98583.81;;;-3.14;100.00
48792;BME280;34587;48.816;9.420;2023-12-04T08:31:41;98585.91;;;-3.00;100.00
48792;BME280;34587;48.816;9.420;2023-12-04T08:34:07;98585.06;;;-3.01;100.00
48792;BME280;34587;48.816;9.420;2023-12-04T08:36:32;98592.06;;;-2.94;100.00
48792;BME280;34587;48.816;9.420;2023-12-04T08:38:57;98584.00;;;-2.80;100.00
48792;BME280;34587;48.816;9.420;2023-12-04T08:41:23;98560.47;;;-2.76;100.00
48792;BME280;34587;48.816;9.420;2023-12-04T08:43:48;98545.38;;;-2.73;100.00
48792;BME280;34587;48.816;9.420;2023-12-04T08:46:14;98565.16;;;-2.62;100.00
48792;BME280;34587;48.816;9.420;2023-12-04T08:48:42;98556.47;;;-2.70;100.00
48792;BME280;34587;48.816;9.420;2023-12-04T08:51:07;98547.97;;;-2.99;100.00
48792;BME280;34587;48.816;9.420;2023-12-04T08:53:35;98530.44;;;-2.91;100.00
48792;BME280;34587;48.816;9.420;2023-12-04T08:56:02;98534.47;;;-2.98;100.00
48792;BME280;34587;48.816;9.420;2023-12-04T08:58:28;98533.69;;;-2.68;100.00
48792;BME280;34587;48.816;9.420;2023-12-04T09:00:53;98530.78;;;-2.52;100.00
48792;BME280;34587;48.816;9.420;2023-12-04T09:03:18;98547.19;;;-2.41;100.00
48792;BME280;34587;48.816;9.420;2023-12-04T09:05:45;98526.84;;;-2.42;100.00
48792;BME280;34587;48.816;9.420;2023-12-04T09:08:11;98532.44;;;-2.24;100.00
48792;BME280;34587;48.816;9.420;2023-12-04T09:10:36;98528.75;;;-2.35;100.00
48792;BME280;34587;48.816;9.420;2023-12-04T09:13:01;98535.66;;;-2.31;100.00
48792;BME280;34587;48.816;9.420;2023-12-04T09:15:27;98547.91;;;-2.16;100.00
48792;BME280;34587;48.816;9.420;2023-12-04T09:17:52;98541.56;;;-2.00;100.00
48792;BME280;34587;48.816;9.420;2023-12-04T09:20:18;98544.59;;;-1.84;100.00
48792;BME280;34587;48.816;9.420;2023-12-04T09:22:43;98539.41;;;-1.87;100.00
48792;BME280;34587;48.816;9.420;2023-12-04T09:25:09;98537.97;;;-1.78;100.00
48792;BME280;34587;48.816;9.420;2023-12-04T09:27:35;98567.22;;;-1.91;100.00
48792;BME280;34587;48.816;9.420;2023-12-04T09:30:01;98577.81;;;-2.06;100.00
48792;BME280;34587;48.816;9.420;2023-12-04T09:32:26;98570.59;;;-1.92;100.00
48792;BME280;34587;48.816;9.420;2023-12-04T09:34:51;98570.22;;;-2.04;100.00
48792;BME280;34587;48.816;9.420;2023-12-04T09:37:17;98569.88;;;-1.87;100.00
48792;BME280;34587;48.816;9.420;2023-12-04T09:39:42;98562.44;;;-1.49;100.00
48792;BME280;34587;48.816;9.420;2023-12-04T09:42:07;98549.28;;;-1.33;100.00
48792;BME280;34587;48.816;9.420;2023-12-04T09:44:34;98539.22;;;-1.30;100.00
48792;BME280;34587;48.816;9.420;2023-12-04T09:47:01;98537.84;;;-1.50;100.00
48792;BME280;34587;48.816;9.420;2023-12-04T09:49:28;98529.94;;;-1.27;100.00
48792;BME280;34587;48.816;9.420;2023-12-04T09:51:53;98536.00;;;-1.22;100.00
48792;BME280;34587;48.816;9.420;2023-12-04T09:54:19;98535.38;;;-1.14;100.00
48792;BME280;34587;48.816;9.420;2023-12-04T09:56:45;98525.97;;;-1.16;100.00
48792;BME280;34587;48.816;9.420;2023-12-04T09:59:13;98525.38;;;-1.41;100.00
48792;BME280;34587;48.816;9.420;2023-12-04T10:01:39;98535.75;;;-1.65;100.00
48792;BME280;34587;48.816;9.420;2023-12-04T10:04:05;98551.97;;;-1.60;100.00
48792;BME280;34587;48.816;9.420;2023-12-04T10:06:31;98543.50;;;-1.60;100.00
48792;BME280;34587;48.816;9.420;2023-12-04T10:08:57;98543.09;;;-1.75;100.00
48792;BME280;34587;48.816;9.420;2023-12-04T10:11:23;98538.50;;;-1.57;100.00
48792;BME280;34587;48.816;9.420;2023-12-04T10:13:50;98539.59;;;-1.47;100.00
48792;BME280;34587;48.816;9.420;2023-12-04T10:16:31;98528.03;;;-1.36;100.00
48792;BME280;34587;48.816;9.420;2023-12-04T10:18:56;98529.41;;;-1.49;100.00
48792;BME280;34587;48.816;9.420;2023-12-04T10:21:22;98530.44;;;-1.41;100.00
48792;BME280;34587;48.816;9.420;2023-12-04T10:23:47;98532.47;;;-1.27;100.00
48792;BME280;34587;48.816;9.420;2023-12-04T10:26:15;98550.03;;;-1.02;100.00
48792;BME280;34587;48.816;9.420;2023-12-04T10:28:59;98533.41;;;-0.52;100.00
48792;BME280;34587;48.816;9.420;2023-12-04T10:31:25;98531.22;;;-0.35;100.00
48792;BME280;34587;48.816;9.420;2023-12-04T10:33:50;98513.66;;;-0.22;100.00
48792;BME280;34587;48.816;9.420;2023-12-04T10:36:16;98521.00;;;-0.36;100.00
48792;BME280;34587;48.816;9.420;2023-12-04T10:38:42;98503.97;;;-0.80;100.00
48792;BME280;34587;48.816;9.420;2023-12-04T10:41:14;98496.31;;;-0.80;100.00
48792;BME280;34587;48.816;9.420;2023-12-04T10:43:48;98495.91;;;-0.98;100.00
48792;BME280;34587;48.816;9.420;2023-12-04T10:46:14;98492.59;;;-0.95;100.00
48792;BME280;34587;48.816;9.420;2023-12-04T10:48:46;98504.44;;;-0.96;100.00
48792;BME280;34587;48.816;9.420;2023-12-04T10:51:12;98503.63;;;-0.95;100.00
48792;BME280;34587;48.816;9.420;2023-12-04T10:53:38;98503.06;;;-0.82;100.00
48792;BME280;34587;48.816;9.420;2023-12-04T10:56:08;98498.19;;;-1.09;100.00
48792;BME280;34587;48.816;9.420;2023-12-04T10:58:36;98481.69;;;-0.90;100.00
48792;BME280;34587;48.816;9.420;2023-12-04T11:01:06;98479.47;;;-0.74;100.00
48792;BME280;34587;48.816;9.420;2023-12-04T11:03:40;98464.63;;;-1.32;100.00
48792;BME280;34587;48.816;9.420;2023-12-04T11:06:10;98468.97;;;-0.90;100.00
48792;BME280;34587;48.816;9.420;2023-12-04T11:08:39;98460.72;;;-0.80;100.00
48792;BME280;34587;48.816;9.420;2023-12-04T11:11:11;98450.47;;;-0.83;100.00
48792;BME280;34587;48.816;9.420;2023-12-04T11:13:39;98449.63;;;-0.83;100.00
48792;BME280;34587;48.816;9.420;2023-12-04T11:21:34;98410.91;;;-0.70;100.00
48792;BME280;34587;48.816;9.420;2023-12-04T11:24:00;98402.13;;;-0.43;100.00
48792;BME280;34587;48.816;9.420;2023-12-04T11:26:26;98394.03;;;-0.65;100.00
48792;BME280;34587;48.816;9.420;2023-12-04T11:28:52;98394.97;;;-0.16;100.00
48792;BME280;34587;48.816;9.420;2023-12-04T11:31:18;98393.91;;;-0.29;100.00
48792;BME280;34587;48.816;9.420;2023-12-04T11:33:44;98395.56;;;-0.31;100.00
48792;BME280;34587;48.816;9.420;2023-12-04T11:36:11;98402.03;;;-0.48;100.00
48792;BME280;34587;48.816;9.420;2023-12-04T11:38:43;98410.03;;;-1.11;100.00
48792;BME280;34587;48.816;9.420;2023-12-04T11:41:19;98404.84;;;-0.76;100.00
48792;BME280;34587;48.816;9.420;2023-12-04T11:43:46;98409.75;;;-0.86;100.00
48792;BME280;34587;48.816;9.420;2023-12-04T11:46:13;98400.41;;;-0.87;100.00
48792;BME280;34587;48.816;9.420;2023-12-04T11:48:39;98410.38;;;-0.94;100.00
48792;BME280;34587;48.816;9.420;2023-12-04T11:51:05;98400.88;;;-1.03;100.00
48792;BME280;34587;48.816;9.420;2023-12-04T11:53:32;98408.41;;;-1.08;100.00
48792;BME280;34587;48.816;9.420;2023-12-04T11:55:57;98391.56;;;-1.02;100.00
48792;BME280;34587;48.816;9.420;2023-12-04T11:58:23;98392.78;;;-0.87;100.00
48792;BME280;34587;48.816;9.420;2023-12-04T12:00:48;98374.13;;;-0.86;100.00
48792;BME280;34587;48.816;9.420;2023-12-04T12:03:15;98366.63;;;-0.80;100.00
48792;BME280;34587;48.816;9.420;2023-12-04T12:05:40;98367.69;;;-0.68;100.00
48792;BME280;34587;48.816;9.420;2023-12-04T12:08:07;98354.38;;;-0.55;100.00
48792;BME280;34587;48.816;9.420;2023-12-04T12:10:33;98338.91;;;-0.67;100.00
48792;BME280;34587;48.816;9.420;2023-12-04T12:12:59;98336.19;;;-0.75;100.00
48792;BME280;34587;48.816;9.420;2023-12-04T12:15:25;98329.28;;;-0.82;100.00
48792;BME280;34587;48.816;9.420;2023-12-04T12:17:51;98310.38;;;-0.95;100.00
48792;BME280;34587;48.816;9.420;2023-12-04T12:20:19;98301.03;;;-0.96;100.00
48792;BME280;34587;48.816;9.420;2023-12-04T12:22:48;98297.75;;;-0.92;100.00
48792;BME280;34587;48.816;9.420;2023-12-04T12:25:13;98284.88;;;-0.98;100.00
48792;BME280;34587;48.816;9.420;2023-12-04T12:27:39;98283.34;;;-0.90;100.00
48792;BME280;34587;48.816;9.420;2023-12-04T12:30:05;98274.78;;;-0.95;100.00
48792;BME280;34587;48.816;9.420;2023-12-04T12:32:31;98280.81;;;-0.90;100.00
48792;BME280;34587;48.816;9.420;2023-12-04T12:34:57;98274.78;;;-0.95;100.00
48792;BME280;34587;48.816;9.420;2023-12-04T12:37:22;98261.56;;;-0.77;100.00
48792;BME280;34587;48.816;9.420;2023-12-04T12:39:48;98270.91;;;-0.76;100.00
48792;BME280;34587;48.816;9.420;2023-12-04T12:42:27;98263.88;;;-0.88;100.00
48792;BME280;34587;48.816;9.420;2023-12-04T12:44:53;98253.84;;;-0.82;100.00
48792;BME280;34587;48.816;9.420;2023-12-04T12:47:19;98250.13;;;-0.99;100.00
48792;BME280;34587;48.816;9.420;2023-12-04T12:49:44;98247.00;;;-0.84;100.00
48792;BME280;34587;48.816;9.420;2023-12-04T12:52:10;98243.41;;;-0.95;100.00
48792;BME280;34587;48.816;9.420;2023-12-04T12:54:45;98241.38;;;-1.13;100.00
48792;BME280;34587;48.816;9.420;2023-12-04T12:57:11;98241.16;;;-1.25;100.00
48792;BME280;34587;48.816;9.420;2023-12-04T12:59:38;98236.19;;;-1.18;100.00
48792;BME280;34587;48.816;9.420;2023-12-04T13:02:04;98239.94;;;-0.99;100.00
48792;BME280;34587;48.816;9.420;2023-12-04T13:04:40;98225.63;;;-0.94;100.00
48792;BME280;34587;48.816;9.420;2023-12-04T13:07:06;98221.41;;;-0.93;100.00
48792;BME280;34587;48.816;9.420;2023-12-04T13:09:35;98226.38;;;-1.01;100.00
48792;BME280;34587;48.816;9.420;2023-12-04T13:12:02;98232.09;;;-1.11;100.00
48792;BME280;34587;48.816;9.420;2023-12-04T13:14:27;98229.56;;;-1.11;100.00
48792;BME280;34587;48.816;9.420;2023-12-04T13:16:52;98228.75;;;-1.09;100.00
48792;BME280;34587;48.816;9.420;2023-12-04T13:19:20;98221.47;;;-0.92;100.00
48792;BME280;34587;48.816;9.420;2023-12-04T13:21:45;98219.97;;;-0.81;100.00
48792;BME280;34587;48.816;9.420;2023-12-04T13:24:10;98216.38;;;-0.90;100.00
48792;BME280;34587;48.816;9.420;2023-12-04T13:26:36;98211.31;;;-0.89;100.00
48792;BME280;34587;48.816;9.420;2023-12-04T13:29:01;98202.81;;;-0.91;100.00
48792;BME280;34587;48.816;9.420;2023-12-04T13:31:27;98196.97;;;-0.87;100.00
48792;BME280;34587;48.816;9.420;2023-12-04T13:33:53;98189.47;;;-0.78;100.00
48792;BME280;34587;48.816;9.420;2023-12-04T13:36:18;98185.34;;;-0.72;100.00
48792;BME280;34587;48.816;9.420;2023-12-04T13:38:43;98179.19;;;-0.85;100.00
48792;BME280;34587;48.816;9.420;2023-12-04T13:41:08;98171.47;;;-0.91;100.00
48792;BME280;34587;48.816;9.420;2023-12-04T13:43:54;98163.00;;;-0.90;100.00
48792;BME280;34587;48.816;9.420;2023-12-04T13:46:20;98168.06;;;-0.92;100.00
48792;BME280;34587;48.816;9.420;2023-12-04T13:48:45;98168.06;;;-0.92;100.00
48792;BME280;34587;48.816;9.420;2023-12-04T13:51:11;98156.28;;;-0.87;100.00
48792;BME280;34587;48.816;9.420;2023-12-04T13:53:38;98154.69;;;-0.82;100.00
48792;BME280;34587;48.816;9.420;2023-12-04T13:56:09;98157.38;;;-0.72;100.00
48792;BME280;34587;48.816;9.420;2023-12-04T13:58:50;98146.16;;;-0.84;100.00
48792;BME280;34587;48.816;9.420;2023-12-04T14:01:23;98139.44;;;-0.80;100.00
48792;BME280;34587;48.816;9.420;2023-12-04T14:03:50;98152.22;;;-0.75;100.00
48792;BME280;34587;48.816;9.420;2023-12-04T14:06:16;98152.16;;;-0.79;100.00
48792;BME280;34587;48.816;9.420;2023-12-04T14:08:41;98150.75;;;-0.61;100.00
48792;BME280;34587;48.816;9.420;2023-12-04T14:11:07;98149.06;;;-0.62;100.00
48792;BME280;34587;48.816;9.420;2023-12-04T14:13:33;98141.22;;;-0.74;100.00
48792;BME280;34587;48.816;9.420;2023-12-04T14:15:58;98150.59;;;-0.72;100.00
48792;BME280;34587;48.816;9.420;2023-12-04T14:18:24;98138.75;;;-0.68;100.00
48792;BME280;34587;48.816;9.420;2023-12-04T14:20:49;98128.56;;;-0.71;100.00
48792;BME280;34587;48.816;9.420;2023-12-04T14:23:14;98137.06;;;-0.69;100.00
48792;BME280;34587;48.816;9.420;2023-12-04T14:25:40;98120.19;;;-0.64;100.00
48792;BME280;34587;48.816;9.420;2023-12-04T14:28:06;98116.84;;;-0.60;100.00
48792;BME280;34587;48.816;9.420;2023-12-04T14:30:32;98122.81;;;-0.58;100.00
48792;BME280;34587;48.816;9.420;2023-12-04T14:32:57;98115.19;;;-0.58;100.00
48792;BME280;34587;48.816;9.420;2023-12-04T14:35:23;98118.69;;;-0.53;100.00
48792;BME280;34587;48.816;9.420;2023-12-04T14:37:48;98102.56;;;-0.52;100.00
48792;BME280;34587;48.816;9.420;2023-12-04T14:40:14;98101.72;;;-0.51;100.00
48792;BME280;34587;48.816;9.420;2023-12-04T14:42:40;98104.22;;;-0.56;100.00
48792;BME280;34587;48.816;9.420;2023-12-04T14:45:06;98106.75;;;-0.54;100.00
48792;BME280;34587;48.816;9.420;2023-12-04T14:47:32;98110.06;;;-0.61;100.00
48792;BME280;34587;48.816;9.420;2023-12-04T14:49:57;98121.88;;;-0.63;100.00
48792;BME280;34587;48.816;9.420;2023-12-04T14:52:22;98117.56;;;-0.69;100.00
48792;BME280;34587;48.816;9.420;2023-12-04T14:54:48;98125.97;;;-0.73;100.00
48792;BME280;34587;48.816;9.420;2023-12-04T14:57:24;98122.72;;;-0.66;100.00
48792;BME280;34587;48.816;9.420;2023-12-04T15:00:09;98118.38;;;-0.71;100.00
48792;BME280;34587;48.816;9.420;2023-12-04T15:02:35;98097.13;;;-0.73;100.00
48792;BME280;34587;48.816;9.420;2023-12-04T15:05:18;98100.66;;;-0.65;100.00
48792;BME280;34587;48.816;9.420;2023-12-04T15:08:02;98093.94;;;-0.62;100.00
48792;BME280;34587;48.816;9.420;2023-12-04T15:10:46;98085.53;;;-0.56;100.00
48792;BME280;34587;48.816;9.420;2023-12-04T15:13:43;98077.94;;;-0.55;100.00
48792;BME280;34587;48.816;9.420;2023-12-04T15:16:09;98072.00;;;-0.55;100.00
48792;BME280;34587;48.816;9.420;2023-12-04T15:18:37;98071.19;;;-0.51;100.00
48792;BME280;34587;48.816;9.420;2023-12-04T15:21:18;98063.44;;;-0.59;100.00
48792;BME280;34587;48.816;9.420;2023-12-04T15:23:43;98078.41;;;-0.80;100.00
48792;BME280;34587;48.816;9.420;2023-12-04T15:26:08;98074.31;;;-0.70;100.00
48792;BME280;34587;48.816;9.420;2023-12-04T15:28:34;98069.13;;;-0.76;100.00
48792;BME280;34587;48.816;9.420;2023-12-04T15:30:59;98064.84;;;-0.78;100.00
48792;BME280;34587;48.816;9.420;2023-12-04T15:33:26;98057.19;;;-0.81;100.00
48792;BME280;34587;48.816;9.420;2023-12-04T15:35:53;98058.91;;;-0.80;100.00
48792;BME280;34587;48.816;9.420;2023-12-04T15:38:18;98044.56;;;-0.74;100.00
48792;BME280;34587;48.816;9.420;2023-12-04T15:40:44;98043.78;;;-0.70;100.00
48792;BME280;34587;48.816;9.420;2023-12-04T15:43:09;98048.13;;;-0.63;100.00
48792;BME280;34587;48.816;9.420;2023-12-04T15:45:35;98051.41;;;-0.70;100.00
48792;BME280;34587;48.816;9.420;2023-12-04T15:48:00;98029.50;;;-0.62;100.00
48792;BME280;34587;48.816;9.420;2023-12-04T15:50:26;98035.31;;;-0.69;100.00
48792;BME280;34587;48.816;9.420;2023-12-04T15:52:51;98027.75;;;-0.66;100.00
48792;BME280;34587;48.816;9.420;2023-12-04T15:55:16;98018.28;;;-0.73;100.00
48792;BME280;34587;48.816;9.420;2023-12-04T15:57:42;98029.44;;;-0.65;100.00
48792;BME280;34587;48.816;9.420;2023-12-04T16:00:07;98020.13;;;-0.66;100.00
48792;BME280;34587;48.816;9.420;2023-12-04T16:02:35;98019.25;;;-0.67;100.00
48792;BME280;34587;48.816;9.420;2023-12-04T16:05:00;98029.50;;;-0.62;100.00
48792;BME280;34587;48.816;9.420;2023-12-04T16:07:25;98021.75;;;-0.68;100.00
48792;BME280;34587;48.816;9.420;2023-12-04T16:09:50;98013.25;;;-0.72;100.00
48792;BME280;34587;48.816;9.420;2023-12-04T16:12:16;98011.56;;;-0.70;100.00
48792;BME280;34587;48.816;9.420;2023-12-04T16:14:41;98007.41;;;-0.66;100.00
48792;BME280;34587;48.816;9.420;2023-12-04T16:17:07;98014.31;;;-0.58;100.00
48792;BME280;34587;48.816;9.420;2023-12-04T16:19:32;98000.75;;;-0.57;100.00
48792;BME280;34587;48.816;9.420;2023-12-04T16:21:58;97996.56;;;-0.50;100.00
48792;BME280;34587;48.816;9.420;2023-12-04T16:24:26;98013.47;;;-0.55;100.00
48792;BME280;34587;48.816;9.420;2023-12-04T16:26:51;98010.88;;;-0.60;100.00
48792;BME280;34587;48.816;9.420;2023-12-04T16:29:18;98000.66;;;-0.63;100.00
48792;BME280;34587;48.816;9.420;2023-12-04T16:31:44;97994.69;;;-0.66;100.00
48792;BME280;34587;48.816;9.420;2023-12-04T16:34:10;97986.22;;;-0.65;100.00
48792;BME280;34587;48.816;9.420;2023-12-04T16:36:35;97982.88;;;-0.61;100.00
48792;BME280;34587;48.816;9.420;2023-12-04T16:39:01;97976.09;;;-0.62;100.00
48792;BME280;34587;48.816;9.420;2023-12-04T16:41:26;97977.78;;;-0.61;100.00
48792;BME280;34587;48.816;9.420;2023-12-04T16:43:51;97965.97;;;-0.56;100.00
48792;BME280;34587;48.816;9.420;2023-12-04T16:46:17;97966.03;;;-0.53;100.00
48792;BME280;34587;48.816;9.420;2023-12-04T16:48:42;97971.13;;;-0.53;100.00
48792;BME280;34587;48.816;9.420;2023-12-04T16:51:08;97971.19;;;-0.45;100.00
48792;BME280;34587;48.816;9.420;2023-12-04T16:53:34;97979.66;;;-0.48;100.00
48792;BME280;34587;48.816;9.420;2023-12-04T16:55:59;97971.97;;;-0.51;100.00
48792;BME280;34587;48.816;9.420;2023-12-04T16:58:24;97972.81;;;-0.52;100.00
48792;BME280;34587;48.816;9.420;2023-12-04T17:00:50;97977.13;;;-0.45;100.00
48792;BME280;34587;48.816;9.420;2023-12-04T17:03:15;97970.34;;;-0.44;100.00
48792;BME280;34587;48.816;9.420;2023-12-04T17:05:40;97966.13;;;-0.44;100.00